Time;durP1;ratioP1;P1;durP2;ratioP2;P2;SDS_P1;SDS_P2;PMS_P1;PMS_P2;Temp;Humidity;BMP_temperature;BMP_pressure;BME280_temperature;BME280_humidity;BME280_pressure;Samples;Min_cycle;Max_cycle;Signal;HPM_P1;HPM_P2
2022/12/10 00:01:14;;;;;;;39.40;20.70;;;;;;;;;;5094373;28;20446;-70
2022/12/10 00:03:42;;;;;;;41.27;21.73;;;;;;;;;;5093882;28;20443;-70
2022/12/10 00:06:12;;;;;;;43.40;24.73;;;;;;;;;;5094282;28;20447;-70
2022/12/10 00:08:39;;;;;;;45.63;22.10;;;;;;;;;;5094188;28;20473;-70
2022/12/10 00:11:07;;;;;;;40.17;21.20;;;;;;;;;;5094451;28;20812;-70
2022/12/10 00:13:35;;;;;;;40.57;20.50;;;;;;;;;;5093547;28;20487;-70
2022/12/10 00:16:02;;;;;;;44.23;22.70;;;;;;;;;;5093977;28;20954;-70
2022/12/10 00:18:30;;;;;;;42.63;21.23;;;;;;;;;;5094131;28;20470;-70
2022/12/10 00:20:58;;;;;;;41.20;21.07;;;;;;;;;;5093768;28;20454;-70
2022/12/10 00:23:25;;;;;;;41.03;20.70;;;;;;;;;;5094103;28;20447;-71
2022/12/10 00:25:52;;;;;;;43.20;21.40;;;;;;;;;;5093756;28;20451;-71
2022/12/10 00:28:21;;;;;;;39.10;21.27;;;;;;;;;;5093986;28;20514;-70
2022/12/10 00:30:48;;;;;;;44.67;22.10;;;;;;;;;;5091880;28;20446;-70
2022/12/10 00:33:15;;;;;;;40.60;20.83;;;;;;;;;;5093801;28;20514;-71
2022/12/10 00:35:42;;;;;;;45.33;21.10;;;;;;;;;;5092986;28;20446;-70
2022/12/10 00:38:10;;;;;;;40.93;20.40;;;;;;;;;;5093532;28;20477;-70
2022/12/10 00:40:38;;;;;;;35.97;19.60;;;;;;;;;;5093725;28;20465;-70
2022/12/10 00:43:05;;;;;;;43.53;20.50;;;;;;;;;;5093767;28;20820;-70
2022/12/10 00:45:32;;;;;;;42.07;20.87;;;;;;;;;;5093156;28;20447;-70
2022/12/10 00:47:59;;;;;;;42.57;21.20;;;;;;;;;;5093196;28;20569;-70
2022/12/10 00:50:26;;;;;;;46.23;24.50;;;;;;;;;;5093488;28;20457;-70
2022/12/10 00:52:53;;;;;;;50.63;26.40;;;;;;;;;;5093617;28;20959;-70
2022/12/10 00:55:22;;;;;;;49.93;24.37;;;;;;;;;;5092829;28;20494;-70
2022/12/10 00:57:49;;;;;;;46.60;25.37;;;;;;;;;;5093446;28;20462;-70
2022/12/10 01:00:16;;;;;;;46.07;25.00;;;;;;;;;;5093410;28;20453;-70
2022/12/10 01:02:43;;;;;;;42.73;23.93;;;;;;;;;;5093258;28;20443;-70
2022/12/10 01:05:10;;;;;;;40.27;22.30;;;;;;;;;;5092735;28;20449;-70
2022/12/10 01:07:38;;;;;;;38.80;22.30;;;;;;;;;;5093135;28;20471;-70
2022/12/10 01:10:05;;;;;;;38.67;20.87;;;;;;;;;;5093299;28;20547;-70
2022/12/10 01:12:34;;;;;;;49.10;24.67;;;;;;;;;;5093183;28;20455;-71
2022/12/10 01:15:01;;;;;;;46.17;24.87;;;;;;;;;;5092261;28;20490;-71
2022/12/10 01:17:28;;;;;;;41.40;22.50;;;;;;;;;;5092986;28;20504;-70
2022/12/10 01:19:55;;;;;;;40.53;20.87;;;;;;;;;;5093055;28;20446;-70
2022/12/10 01:22:22;;;;;;;41.63;20.67;;;;;;;;;;5093063;28;20460;-71
2022/12/10 01:24:49;;;;;;;40.10;20.83;;;;;;;;;;5092399;28;20516;-70
2022/12/10 01:27:17;;;;;;;37.80;20.20;;;;;;;;;;5092828;28;20466;-71
2022/12/10 01:29:45;;;;;;;40.80;21.00;;;;;;;;;;5090280;28;20457;-71
2022/12/10 01:32:12;;;;;;;36.10;20.60;;;;;;;;;;5092630;28;20454;-70
2022/12/10 01:34:39;;;;;;;39.80;20.00;;;;;;;;;;5091661;28;20491;-70
2022/12/10 01:37:06;;;;;;;38.40;20.60;;;;;;;;;;5092995;28;20972;-70
2022/12/10 01:39:34;;;;;;;35.90;20.03;;;;;;;;;;5092828;28;20967;-71
2022/12/10 01:42:01;;;;;;;41.10;21.13;;;;;;;;;;5092858;28;20452;-71
2022/12/10 01:44:47;;;;;;;40.30;19.63;;;;;;;;;;5092016;28;20446;-71
2022/12/10 01:47:15;;;;;;;34.63;20.23;;;;;;;;;;5092737;28;20473;-70
2022/12/10 01:49:42;;;;;;;37.67;19.43;;;;;;;;;;5092729;28;20452;-70
2022/12/10 01:52:11;;;;;;;37.03;20.50;;;;;;;;;;5093016;28;20449;-70
2022/12/10 01:54:39;;;;;;;36.17;18.90;;;;;;;;;;5091762;28;20490;-71
2022/12/10 01:57:08;;;;;;;44.93;21.07;;;;;;;;;;5092754;28;20470;-70
2022/12/10 01:59:36;;;;;;;40.37;20.00;;;;;;;;;;5092704;28;20446;-70
2022/12/10 02:02:05;;;;;;;35.10;19.33;;;;;;;;;;5092616;28;20442;-70
2022/12/10 02:04:37;;;;;;;35.40;19.30;;;;;;;;;;5091929;28;20493;-70
2022/12/10 02:07:10;;;;;;;35.73;21.07;;;;;;;;;;5092636;28;20964;-70
2022/12/10 02:09:39;;;;;;;37.00;19.73;;;;;;;;;;5092806;28;20454;-70
2022/12/10 02:12:11;;;;;;;37.87;19.77;;;;;;;;;;5092542;28;20451;-70
2022/12/10 02:14:43;;;;;;;43.00;21.70;;;;;;;;;;5091675;28;20486;-71
2022/12/10 02:17:13;;;;;;;33.87;20.13;;;;;;;;;;5092463;28;21022;-70
2022/12/10 02:19:51;;;;;;;39.47;20.20;;;;;;;;;;5092279;28;20464;-70
2022/12/10 02:22:19;;;;;;;38.73;20.93;;;;;;;;;;5092555;28;20446;-70
2022/12/10 02:24:47;;;;;;;36.47;19.93;;;;;;;;;;5091813;28;20813;-70
2022/12/10 02:27:17;;;;;;;40.00;21.00;;;;;;;;;;5092420;28;20480;-70
2022/12/10 02:29:48;;;;;;;38.43;18.30;;;;;;;;;;5089904;28;20904;-70
2022/12/10 02:32:17;;;;;;;42.00;22.37;;;;;;;;;;5092380;28;20454;-70
2022/12/10 02:34:45;;;;;;;39.77;21.33;;;;;;;;;;5091542;28;20486;-70
2022/12/10 02:37:16;;;;;;;37.43;19.30;;;;;;;;;;5092269;28;20466;-70
2022/12/10 02:39:45;;;;;;;37.23;19.00;;;;;;;;;;5092321;28;20447;-70
2022/12/10 02:42:13;;;;;;;33.13;17.70;;;;;;;;;;5092379;28;20450;-70
2022/12/10 02:44:42;;;;;;;41.73;21.00;;;;;;;;;;5093310;28;20946;-70
2022/12/10 02:47:11;;;;;;;35.87;20.43;;;;;;;;;;5095834;28;20466;-70
2022/12/10 02:49:38;;;;;;;44.43;19.90;;;;;;;;;;5095908;28;20800;-71
2022/12/10 02:52:09;;;;;;;33.73;18.20;;;;;;;;;;5095886;28;20449;-70
2022/12/10 02:54:38;;;;;;;38.60;19.13;;;;;;;;;;5095075;28;20489;-70
2022/12/10 02:57:10;;;;;;;49.30;21.10;;;;;;;;;;5095637;28;20504;-71
2022/12/10 02:59:42;;;;;;;45.87;21.33;;;;;;;;;;5095740;28;20454;-70
2022/12/10 03:02:12;;;;;;;44.00;21.07;;;;;;;;;;5095730;28;20454;-70
2022/12/10 03:04:43;;;;;;;43.37;19.07;;;;;;;;;;5094923;28;20446;-70
2022/12/10 03:07:12;;;;;;;37.13;17.07;;;;;;;;;;5095411;28;20463;-70
2022/12/10 03:09:41;;;;;;;30.17;17.23;;;;;;;;;;5095343;28;20461;-70
2022/12/10 03:12:15;;;;;;;35.23;18.50;;;;;;;;;;5095618;28;20446;-70
2022/12/10 03:14:43;;;;;;;38.27;20.13;;;;;;;;;;5094726;28;20482;-71
2022/12/10 03:17:11;;;;;;;39.97;20.30;;;;;;;;;;5095243;28;20835;-70
2022/12/10 03:19:41;;;;;;;39.47;20.83;;;;;;;;;;5095236;28;20952;-70
2022/12/10 03:22:09;;;;;;;37.70;18.33;;;;;;;;;;5095191;28;20454;-70
2022/12/10 03:24:36;;;;;;;33.00;17.97;;;;;;;;;;5094472;28;20451;-70
2022/12/10 03:27:05;;;;;;;34.97;19.47;;;;;;;;;;5095330;28;20467;-70
2022/12/10 03:29:35;;;;;;;37.13;20.73;;;;;;;;;;5092776;28;20813;-71
2022/12/10 03:32:03;;;;;;;36.87;20.30;;;;;;;;;;5095213;28;20451;-70
2022/12/10 03:34:32;;;;;;;43.60;21.67;;;;;;;;;;5094243;28;20498;-70
2022/12/10 03:36:59;;;;;;;37.90;19.07;;;;;;;;;;5094886;28;20482;-70
2022/12/10 03:39:27;;;;;;;33.00;19.60;;;;;;;;;;5095176;28;20451;-70
2022/12/10 03:41:54;;;;;;;40.93;18.60;;;;;;;;;;5094943;28;20458;-70
2022/12/10 03:44:29;;;;;;;44.40;20.93;;;;;;;;;;5094212;28;20453;-70
2022/12/10 03:46:56;;;;;;;43.93;21.33;;;;;;;;;;5094646;28;20478;-71
2022/12/10 03:49:23;;;;;;;40.63;20.73;;;;;;;;;;5094669;28;20808;-71
2022/12/10 03:51:52;;;;;;;42.00;20.97;;;;;;;;;;5094659;28;20932;-70
2022/12/10 03:54:19;;;;;;;35.27;17.47;;;;;;;;;;5094315;28;20592;-70
2022/12/10 03:56:46;;;;;;;39.73;18.90;;;;;;;;;;5094017;28;20470;-70
2022/12/10 03:59:13;;;;;;;36.93;18.50;;;;;;;;;;5094805;28;20447;-70
2022/12/10 04:01:41;;;;;;;32.27;18.50;;;;;;;;;;5094452;28;20449;-70
2022/12/10 04:04:08;;;;;;;40.83;19.87;;;;;;;;;;5093824;28;20468;-70
2022/12/10 04:06:35;;;;;;;36.13;18.60;;;;;;;;;;5094358;28;20451;-71
2022/12/10 04:09:04;;;;;;;45.70;19.73;;;;;;;;;;5094409;28;20478;-70
2022/12/10 04:11:31;;;;;;;43.60;20.30;;;;;;;;;;5094427;28;20469;-71
2022/12/10 04:16:42;;;;;;;41.70;22.40;;;;;;;;;;5094012;28;20488;-70
2022/12/10 04:19:11;;;;;;;47.70;22.53;;;;;;;;;;5094226;28;20564;-70
2022/12/10 04:27:12;;;;;;;40.00;20.70;;;;;;;;;;5093957;28;20524;-70
2022/12/10 04:29:39;;;;;;;45.50;23.40;;;;;;;;;;5091896;28;20457;-70
2022/12/10 04:32:06;;;;;;;41.10;22.53;;;;;;;;;;5093884;28;20446;-70
2022/12/10 04:34:34;;;;;;;44.80;20.00;;;;;;;;;;5093044;28;20837;-71
2022/12/10 04:37:02;;;;;;;41.70;20.23;;;;;;;;;;5093575;28;20480;-71
2022/12/10 04:39:30;;;;;;;33.10;18.50;;;;;;;;;;5093779;28;20446;-70
2022/12/10 04:41:58;;;;;;;45.97;23.50;;;;;;;;;;5093567;28;20457;-70
2022/12/10 04:44:25;;;;;;;43.43;20.73;;;;;;;;;;5093066;28;20961;-70
2022/12/10 04:46:52;;;;;;;39.57;18.23;;;;;;;;;;5093530;28;20471;-70
2022/12/10 04:49:19;;;;;;;39.00;18.77;;;;;;;;;;5093662;28;20446;-71
2022/12/10 04:51:47;;;;;;;38.17;16.37;;;;;;;;;;5093482;28;20896;-71
2022/12/10 04:54:14;;;;;;;36.00;18.80;;;;;;;;;;5092871;28;20967;-70
2022/12/10 04:56:42;;;;;;;37.00;18.20;;;;;;;;;;5093434;28;20469;-71
2022/12/10 04:59:10;;;;;;;39.23;20.70;;;;;;;;;;5093458;28;20447;-70
2022/12/10 05:01:37;;;;;;;45.73;20.70;;;;;;;;;;5093443;28;20447;-70
2022/12/10 05:04:05;;;;;;;37.23;20.20;;;;;;;;;;5092508;28;20455;-70
2022/12/10 05:06:33;;;;;;;33.03;20.50;;;;;;;;;;5093138;28;20442;-70
2022/12/10 05:09:00;;;;;;;34.73;19.33;;;;;;;;;;5092360;28;20812;-70
2022/12/10 05:11:29;;;;;;;38.27;20.73;;;;;;;;;;5093252;28;20947;-70
2022/12/10 05:13:58;;;;;;;33.80;18.27;;;;;;;;;;5092638;28;20454;-70
2022/12/10 05:16:26;;;;;;;34.53;18.37;;;;;;;;;;5092740;28;20487;-70
2022/12/10 05:18:54;;;;;;;33.63;18.43;;;;;;;;;;5092892;28;20450;-70
2022/12/10 05:21:22;;;;;;;34.47;18.57;;;;;;;;;;5093196;28;20831;-70
2022/12/10 05:23:49;;;;;;;33.63;17.53;;;;;;;;;;5092442;28;20878;-70
2022/12/10 05:26:17;;;;;;;36.10;18.03;;;;;;;;;;5092840;28;20453;-70
2022/12/10 05:28:45;;;;;;;42.20;19.40;;;;;;;;;;5092826;28;20478;-70
2022/12/10 05:31:15;;;;;;;37.73;19.67;;;;;;;;;;5090586;28;20936;-70
2022/12/10 05:33:42;;;;;;;39.13;20.10;;;;;;;;;;5092342;28;20513;-70
2022/12/10 05:36:11;;;;;;;30.97;18.17;;;;;;;;;;5092776;28;20489;-70
2022/12/10 05:38:39;;;;;;;50.37;19.90;;;;;;;;;;5092983;28;20474;-70
2022/12/10 05:41:08;;;;;;;44.53;20.40;;;;;;;;;;5092857;28;20458;-70
2022/12/10 05:43:35;;;;;;;39.57;20.20;;;;;;;;;;5092376;28;20443;-70
2022/12/10 05:46:03;;;;;;;44.97;20.77;;;;;;;;;;5092643;28;20450;-70
2022/12/10 05:48:32;;;;;;;51.40;22.10;;;;;;;;;;5092772;28;20983;-70
2022/12/10 05:50:59;;;;;;;48.57;22.43;;;;;;;;;;5092928;28;20827;-70
2022/12/10 05:53:26;;;;;;;46.87;22.10;;;;;;;;;;5092645;28;20456;-70
2022/12/10 05:56:00;;;;;;;47.13;22.60;;;;;;;;;;5092724;28;20496;-70
2022/12/10 05:58:28;;;;;;;46.37;24.37;;;;;;;;;;5092578;28;20480;-70
2022/12/10 06:00:55;;;;;;;45.57;24.27;;;;;;;;;;5092623;28;20792;-70
2022/12/10 06:03:22;;;;;;;41.83;21.80;;;;;;;;;;5092564;28;20457;-70
2022/12/10 06:05:51;;;;;;;39.83;21.70;;;;;;;;;;5092230;28;20446;-70
2022/12/10 06:08:18;;;;;;;36.50;20.57;;;;;;;;;;5092829;28;20467;-70
2022/12/10 06:10:45;;;;;;;50.43;24.53;;;;;;;;;;5092436;28;20454;-70
2022/12/10 06:13:12;;;;;;;49.27;23.70;;;;;;;;;;5092744;28;20447;-70
2022/12/10 06:15:40;;;;;;;43.17;23.80;;;;;;;;;;5091738;28;20486;-70
2022/12/10 06:18:07;;;;;;;59.10;25.20;;;;;;;;;;5092551;28;20984;-70
2022/12/10 06:20:34;;;;;;;54.95;30.30;;;;;;;;;;5094656;28;20442;-70
2022/12/10 06:23:03;;;;;;;49.70;27.03;;;;;;;;;;5096384;28;20216;-70
2022/12/10 06:25:30;;;;;;;46.87;23.13;;;;;;;;;;5098819;28;20454;-70
2022/12/10 06:27:57;;;;;;;45.43;22.67;;;;;;;;;;5095925;28;20481;-70
2022/12/10 06:30:24;;;;;;;53.80;22.60;;;;;;;;;;5094336;28;20936;-70
2022/12/10 06:32:51;;;;;;;48.20;22.77;;;;;;;;;;5095663;28;20814;-70
2022/12/10 06:35:18;;;;;;;43.20;22.57;;;;;;;;;;5095245;28;20861;-71
2022/12/10 06:37:45;;;;;;;52.53;23.73;;;;;;;;;;5095636;28;20472;-70
2022/12/10 06:40:14;;;;;;;48.23;25.67;;;;;;;;;;5096035;28;20548;-70
2022/12/10 06:42:41;;;;;;;57.90;30.40;;;;;;;;;;5095532;28;20453;-70
2022/12/10 06:45:09;;;;;;;45.90;25.50;;;;;;;;;;5095247;28;20811;-69
2022/12/10 06:47:36;;;;;;;75.57;38.57;;;;;;;;;;5095552;28;20474;-70
2022/12/10 06:50:04;;;;;;;153.27;81.63;;;;;;;;;;5095760;28;20453;-70
2022/12/10 06:52:31;;;;;;;54.47;27.00;;;;;;;;;;5095518;28;20902;-71
2022/12/10 06:54:58;;;;;;;53.13;29.83;;;;;;;;;;5094440;28;21559;-70
2022/12/10 06:57:27;;;;;;;44.87;23.70;;;;;;;;;;5095542;28;20476;-70
2022/12/10 06:59:54;;;;;;;44.77;22.90;;;;;;;;;;5095488;28;20442;-70
2022/12/10 07:02:21;;;;;;;55.20;24.20;;;;;;;;;;5095442;28;20446;-70
2022/12/10 07:04:48;;;;;;;49.47;21.90;;;;;;;;;;5094369;28;20468;-70
2022/12/10 07:07:15;;;;;;;44.17;24.07;;;;;;;;;;5095079;28;20473;-70
2022/12/10 07:09:42;;;;;;;41.40;22.87;;;;;;;;;;5095241;28;20447;-70
2022/12/10 07:12:09;;;;;;;45.80;23.10;;;;;;;;;;5095366;28;20482;-70
2022/12/10 07:14:38;;;;;;;36.87;22.73;;;;;;;;;;5094384;28;20927;-70
2022/12/10 07:17:05;;;;;;;39.80;22.70;;;;;;;;;;5094755;28;20494;-69
2022/12/10 07:19:32;;;;;;;39.87;21.27;;;;;;;;;;5095127;28;20470;-70
2022/12/10 07:21:59;;;;;;;47.67;24.87;;;;;;;;;;5094882;28;20453;-70
2022/12/10 07:24:26;;;;;;;44.60;21.73;;;;;;;;;;5094146;28;20469;-70
2022/12/10 07:26:54;;;;;;;41.70;20.97;;;;;;;;;;5094890;28;20561;-70
2022/12/10 07:29:22;;;;;;;34.13;19.77;;;;;;;;;;5093460;28;20450;-70
2022/12/10 07:31:50;;;;;;;38.23;20.57;;;;;;;;;;5093603;28;20457;-70
2022/12/10 07:34:18;;;;;;;39.47;21.13;;;;;;;;;;5093771;28;20451;-70
2022/12/10 07:36:45;;;;;;;42.73;21.73;;;;;;;;;;5094466;28;20498;-70
2022/12/10 07:39:16;;;;;;;47.60;22.03;;;;;;;;;;5094880;28;20450;-70
2022/12/10 07:41:44;;;;;;;39.23;20.80;;;;;;;;;;5095012;28;20511;-70
2022/12/10 07:44:11;;;;;;;42.37;21.70;;;;;;;;;;5094319;28;20451;-70
2022/12/10 07:46:39;;;;;;;39.13;21.53;;;;;;;;;;5094630;28;20448;-70
2022/12/10 07:49:08;;;;;;;43.00;22.83;;;;;;;;;;5094641;28;20458;-70
2022/12/10 07:51:35;;;;;;;40.40;21.93;;;;;;;;;;5094495;28;20465;-70
2022/12/10 07:54:02;;;;;;;35.33;19.27;;;;;;;;;;5093859;28;20481;-70
2022/12/10 07:56:29;;;;;;;35.73;20.87;;;;;;;;;;5079479;28;20494;-70
2022/12/10 07:58:56;;;;;;;41.30;22.27;;;;;;;;;;5110928;28;20454;-70
2022/12/10 08:01:25;;;;;;;40.07;20.40;;;;;;;;;;5113308;28;20454;-69
2022/12/10 08:03:52;;;;;;;40.47;20.13;;;;;;;;;;5113027;28;20468;-70
2022/12/10 08:06:22;;;;;;;41.57;20.30;;;;;;;;;;5113015;28;20450;-70
2022/12/10 08:08:50;;;;;;;41.87;19.63;;;;;;;;;;5107766;28;20479;-69
2022/12/10 08:11:18;;;;;;;44.93;20.80;;;;;;;;;;5092811;28;20450;-70
2022/12/10 08:13:45;;;;;;;38.57;20.30;;;;;;;;;;5091428;28;20454;-69
2022/12/10 08:16:14;;;;;;;43.67;24.47;;;;;;;;;;5092499;28;20499;-70
2022/12/10 08:18:41;;;;;;;41.10;23.23;;;;;;;;;;5092484;28;20479;-71
2022/12/10 08:21:09;;;;;;;41.53;20.07;;;;;;;;;;5092239;28;20546;-69
2022/12/10 08:23:38;;;;;;;42.63;22.07;;;;;;;;;;5092039;28;20810;-70
2022/12/10 08:26:05;;;;;;;38.60;19.40;;;;;;;;;;5092307;28;20659;-70
2022/12/10 08:28:32;;;;;;;40.47;21.50;;;;;;;;;;5091398;28;20474;-71
2022/12/10 08:30:59;;;;;;;49.93;22.47;;;;;;;;;;5089870;28;20461;-70
2022/12/10 08:33:27;;;;;;;46.37;23.67;;;;;;;;;;5092165;28;20458;-71
2022/12/10 08:35:58;;;;;;;41.67;24.43;;;;;;;;;;5091394;28;20486;-70
2022/12/10 08:38:25;;;;;;;43.50;21.40;;;;;;;;;;5092343;28;20493;-70
2022/12/10 08:40:53;;;;;;;36.47;21.77;;;;;;;;;;5091712;28;20447;-71
2022/12/10 08:43:21;;;;;;;39.37;21.47;;;;;;;;;;5091560;28;20541;-70
2022/12/10 08:45:48;;;;;;;35.87;19.97;;;;;;;;;;5091427;28;20450;-71
2022/12/10 08:48:15;;;;;;;42.93;20.40;;;;;;;;;;5091962;28;20479;-70
2022/12/10 08:50:42;;;;;;;42.07;20.50;;;;;;;;;;5091319;28;20454;-71
2022/12/10 08:53:09;;;;;;;48.90;23.80;;;;;;;;;;5092008;28;20820;-70
2022/12/10 08:55:39;;;;;;;60.40;32.83;;;;;;;;;;5090973;28;20456;-71
2022/12/10 08:58:09;;;;;;;138.40;62.43;;;;;;;;;;5091596;28;20470;-70
2022/12/10 09:00:36;;;;;;;42.03;22.83;;;;;;;;;;5091878;28;20454;-72
2022/12/10 09:03:03;;;;;;;54.53;27.13;;;;;;;;;;5091717;28;20443;-70
2022/12/10 09:05:30;;;;;;;44.90;26.63;;;;;;;;;;5100787;27;20804;-69
2022/12/10 09:07:57;;;;;;;54.87;27.93;;;;;;;;;;5111565;28;20978;-71
2022/12/10 09:10:24;;;;;;;36.43;20.80;;;;;;;;;;5111479;27;20468;-70
2022/12/10 09:12:52;;;;;;;66.17;36.40;;;;;;;;;;5111199;28;20445;-70
2022/12/10 09:15:20;;;;;;;45.13;23.50;;;;;;;;;;5111567;28;20454;-70
2022/12/10 09:17:47;;;;;;;35.47;18.97;;;;;;;;;;5111480;28;20879;-71
2022/12/10 09:20:15;;;;;;;36.00;21.10;;;;;;;;;;5111408;28;20453;-70
2022/12/10 09:22:42;;;;;;;37.07;20.10;;;;;;;;;;5111633;28;20754;-70
2022/12/10 09:25:10;;;;;;;38.73;23.80;;;;;;;;;;5111391;28;20537;-71
2022/12/10 09:27:37;;;;;;;40.07;21.83;;;;;;;;;;5112379;28;20484;-70
2022/12/10 09:30:06;;;;;;;50.30;25.73;;;;;;;;;;5111046;28;20446;-70
2022/12/10 09:32:34;;;;;;;37.60;23.33;;;;;;;;;;5112662;28;20499;-71
2022/12/10 09:35:01;;;;;;;38.10;20.33;;;;;;;;;;5112478;28;20441;-70
2022/12/10 09:37:28;;;;;;;48.17;25.77;;;;;;;;;;5112973;28;20849;-69
2022/12/10 09:39:56;;;;;;;40.07;24.13;;;;;;;;;;5112659;28;20555;-70
2022/12/10 09:42:36;;;;;;;50.87;27.33;;;;;;;;;;5112890;28;20455;-69
2022/12/10 09:45:06;;;;;;;99.67;51.80;;;;;;;;;;5113036;28;20445;-69
2022/12/10 09:47:37;;;;;;;31.80;19.80;;;;;;;;;;5112930;28;20568;-70
2022/12/10 09:50:11;;;;;;;35.27;18.73;;;;;;;;;;5113072;28;20450;-70
2022/12/10 09:52:41;;;;;;;72.97;39.57;;;;;;;;;;5113067;28;20452;-70
2022/12/10 09:55:11;;;;;;;41.03;22.10;;;;;;;;;;5116060;28;20430;-69
2022/12/10 09:57:40;;;;;;;116.73;82.73;;;;;;;;;;5117604;28;20496;-69
2022/12/10 10:00:27;;;;;;;43.73;24.53;;;;;;;;;;5117630;28;20476;-70
2022/12/10 10:02:58;;;;;;;34.20;22.10;;;;;;;;;;5117644;28;20445;-69
2022/12/10 10:05:27;;;;;;;40.87;23.37;;;;;;;;;;5117249;28;20476;-69
2022/12/10 10:07:55;;;;;;;40.30;21.90;;;;;;;;;;5117124;28;20470;-69
2022/12/10 10:10:25;;;;;;;38.87;26.00;;;;;;;;;;5116833;28;20448;-70
2022/12/10 10:12:53;;;;;;;56.30;27.70;;;;;;;;;;5117240;28;20453;-69
2022/12/10 10:15:23;;;;;;;52.03;25.10;;;;;;;;;;5116724;28;20453;-69
2022/12/10 10:17:54;;;;;;;43.20;25.67;;;;;;;;;;5116691;28;20494;-69
2022/12/10 10:20:22;;;;;;;42.83;23.10;;;;;;;;;;5116862;28;20450;-69
2022/12/10 10:22:50;;;;;;;41.20;21.67;;;;;;;;;;5100918;28;20445;-69
2022/12/10 10:25:18;;;;;;;45.10;25.03;;;;;;;;;;5102274;28;20452;-69
2022/12/10 10:27:46;;;;;;;35.83;20.30;;;;;;;;;;5115733;28;20548;-69
2022/12/10 10:30:16;;;;;;;48.20;24.67;;;;;;;;;;5115779;28;20954;-69
2022/12/10 10:32:49;;;;;;;59.97;32.90;;;;;;;;;;5115697;28;20445;-69
2022/12/10 10:35:22;;;;;;;33.43;20.30;;;;;;;;;;5097289;27;20458;-69
2022/12/10 10:37:50;;;;;;;42.30;21.93;;;;;;;;;;5094219;28;20490;-69
2022/12/10 10:40:23;;;;;;;38.83;22.77;;;;;;;;;;5094476;28;20835;-69
2022/12/10 10:42:53;;;;;;;89.73;37.20;;;;;;;;;;5094736;28;20450;-69
2022/12/10 10:45:34;;;;;;;42.93;23.70;;;;;;;;;;5094391;28;20450;-69
2022/12/10 10:48:06;;;;;;;60.17;27.83;;;;;;;;;;5094811;28;20500;-69
2022/12/10 10:50:38;;;;;;;49.87;26.87;;;;;;;;;;5108068;28;20445;-70
2022/12/10 10:53:20;;;;;;;41.70;25.60;;;;;;;;;;5115176;27;20528;-69
2022/12/10 10:55:49;;;;;;;42.17;23.00;;;;;;;;;;5114148;28;20525;-70
2022/12/10 10:58:18;;;;;;;55.33;23.40;;;;;;;;;;5114361;28;20675;-70
2022/12/10 11:00:54;;;;;;;44.27;22.20;;;;;;;;;;5101454;28;20492;-69
2022/12/10 11:03:21;;;;;;;44.73;24.40;;;;;;;;;;5075475;28;20451;-72
2022/12/10 11:05:49;;;;;;;44.70;23.27;;;;;;;;;;5086450;28;20526;-70
2022/12/10 11:08:18;;;;;;;96.17;52.00;;;;;;;;;;5094387;28;20466;-70
2022/12/10 11:10:50;;;;;;;77.43;38.10;;;;;;;;;;5095343;28;20519;-69
2022/12/10 11:13:21;;;;;;;43.10;22.17;;;;;;;;;;5095567;28;20501;-70
2022/12/10 11:15:55;;;;;;;42.10;24.70;;;;;;;;;;5091646;28;20453;-69
2022/12/10 11:18:26;;;;;;;38.97;22.30;;;;;;;;;;5093550;28;20486;-69
2022/12/10 11:21:01;;;;;;;45.70;25.30;;;;;;;;;;5089728;28;20448;-70
2022/12/10 11:23:29;;;;;;;54.73;23.43;;;;;;;;;;5075755;28;20451;-70
2022/12/10 11:26:02;;;;;;;43.73;22.93;;;;;;;;;;5074748;28;20462;-69
2022/12/10 11:28:35;;;;;;;46.33;24.10;;;;;;;;;;5076239;28;20482;-69
2022/12/10 11:31:13;;;;;;;54.70;25.10;;;;;;;;;;5087947;28;20974;-69
2022/12/10 11:33:43;;;;;;;42.20;22.90;;;;;;;;;;5085739;28;20974;-70
2022/12/10 11:36:18;;;;;;;50.97;26.10;;;;;;;;;;5095080;28;20458;-69
2022/12/10 11:38:51;;;;;;;48.23;24.60;;;;;;;;;;5094499;28;20470;-69
2022/12/10 11:41:27;;;;;;;45.70;23.50;;;;;;;;;;5095003;28;20450;-70
2022/12/10 11:44:05;;;;;;;45.80;23.67;;;;;;;;;;5086632;28;20465;-69
2022/12/10 11:46:37;;;;;;;56.20;27.30;;;;;;;;;;5074669;28;20459;-69
2022/12/10 11:49:11;;;;;;;51.63;27.50;;;;;;;;;;5074724;28;20932;-70
2022/12/10 11:51:41;;;;;;;59.30;27.97;;;;;;;;;;5074596;28;20453;-69
2022/12/10 11:54:15;;;;;;;58.63;33.27;;;;;;;;;;5075091;28;20891;-70
2022/12/10 11:56:45;;;;;;;120.83;74.30;;;;;;;;;;5074528;28;20483;-70
2022/12/10 11:59:17;;;;;;;51.17;24.83;;;;;;;;;;5074487;28;20941;-70
2022/12/10 12:01:57;;;;;;;48.67;27.37;;;;;;;;;;5081152;28;20450;-70
2022/12/10 12:04:28;;;;;;;61.17;28.80;;;;;;;;;;5094114;28;20442;-70
2022/12/10 12:07:01;;;;;;;48.27;26.93;;;;;;;;;;5094178;28;20488;-70
2022/12/10 12:09:31;;;;;;;49.27;24.63;;;;;;;;;;5085233;28;20979;-70
2022/12/10 12:12:19;;;;;;;43.33;25.23;;;;;;;;;;5079242;28;20514;-70
2022/12/10 12:14:50;;;;;;;54.53;28.20;;;;;;;;;;5086576;28;20454;-70
2022/12/10 12:17:19;;;;;;;59.17;35.67;;;;;;;;;;5091954;28;20486;-70
2022/12/10 12:19:49;;;;;;;78.20;45.47;;;;;;;;;;5077098;28;20458;-70
2022/12/10 12:22:17;;;;;;;69.37;39.10;;;;;;;;;;5094306;28;20561;-70
2022/12/10 12:24:46;;;;;;;73.70;44.60;;;;;;;;;;5093516;28;20452;-70
2022/12/10 12:27:16;;;;;;;63.87;33.17;;;;;;;;;;5091133;28;20652;-71
2022/12/10 12:29:46;;;;;;;59.17;35.57;;;;;;;;;;5091716;28;20453;-74
2022/12/10 12:32:19;;;;;;;48.60;24.97;;;;;;;;;;5092541;28;20457;-70
2022/12/10 12:34:48;;;;;;;47.83;27.87;;;;;;;;;;5091829;28;20470;-70
2022/12/10 12:37:17;;;;;;;55.93;26.20;;;;;;;;;;5092195;28;20490;-71
2022/12/10 12:39:47;;;;;;;66.63;36.33;;;;;;;;;;5091860;28;20462;-71
2022/12/10 12:42:18;;;;;;;61.50;38.93;;;;;;;;;;5092462;28;20451;-71
2022/12/10 12:44:52;;;;;;;47.93;28.93;;;;;;;;;;5092019;28;20457;-71
2022/12/10 12:47:24;;;;;;;60.27;31.20;;;;;;;;;;5092160;28;20477;-71
2022/12/10 12:49:51;;;;;;;49.33;22.37;;;;;;;;;;5091681;28;20455;-70
2022/12/10 12:52:26;;;;;;;47.30;24.70;;;;;;;;;;5092246;28;20479;-70
2022/12/10 12:54:55;;;;;;;47.40;22.20;;;;;;;;;;5091373;28;20458;-71
2022/12/10 12:57:28;;;;;;;38.50;20.37;;;;;;;;;;5110297;28;20486;-71
2022/12/10 12:59:58;;;;;;;59.90;29.83;;;;;;;;;;5112391;28;20454;-71
2022/12/10 13:02:39;;;;;;;43.53;23.37;;;;;;;;;;5112590;28;20449;-70
2022/12/10 13:05:06;;;;;;;51.77;27.07;;;;;;;;;;5111526;28;20460;-70
2022/12/10 13:07:35;;;;;;;46.97;24.00;;;;;;;;;;5111877;28;20477;-70
2022/12/10 13:10:21;;;;;;;51.57;23.80;;;;;;;;;;5087112;28;20478;-71
2022/12/10 13:12:49;;;;;;;41.67;23.83;;;;;;;;;;5071259;28;20850;-71
2022/12/10 13:15:19;;;;;;;51.40;26.97;;;;;;;;;;5070839;28;20550;-71
2022/12/10 13:18:05;;;;;;;41.40;22.23;;;;;;;;;;5070924;28;20502;-71
2022/12/10 13:20:34;;;;;;;46.27;24.40;;;;;;;;;;5072839;28;20466;-70
2022/12/10 13:23:02;;;;;;;46.70;24.80;;;;;;;;;;5072530;28;20491;-70
2022/12/10 13:25:40;;;;;;;53.77;30.67;;;;;;;;;;5072237;28;20563;-70
2022/12/10 13:28:18;;;;;;;72.83;37.67;;;;;;;;;;5072345;28;20477;-71
2022/12/10 13:31:05;;;;;;;47.80;24.40;;;;;;;;;;5071200;28;20459;-71
2022/12/10 13:33:47;;;;;;;56.73;29.77;;;;;;;;;;5071988;28;20451;-70
2022/12/10 13:36:14;;;;;;;56.83;29.00;;;;;;;;;;5072874;28;20484;-70
2022/12/10 13:38:42;;;;;;;55.03;25.30;;;;;;;;;;5072338;28;20496;-71
2022/12/10 13:46:54;;;;;;;54.23;26.23;;;;;;;;;;5075000;28;20478;-70
2022/12/10 13:49:23;;;;;;;70.07;33.43;;;;;;;;;;5090062;28;20451;-70
2022/12/10 13:51:54;;;;;;;65.80;33.97;;;;;;;;;;5092458;28;20970;-71
2022/12/10 13:54:31;;;;;;;71.53;35.77;;;;;;;;;;5092141;28;20792;-70
2022/12/10 13:57:03;;;;;;;76.33;35.67;;;;;;;;;;5092730;28;20474;-71
2022/12/10 13:59:35;;;;;;;70.47;34.10;;;;;;;;;;5092710;28;20533;-71
2022/12/10 14:02:16;;;;;;;52.70;28.83;;;;;;;;;;5092578;28;20458;-71
2022/12/10 14:04:52;;;;;;;52.57;27.80;;;;;;;;;;5092065;28;20939;-70
2022/12/10 14:07:20;;;;;;;43.57;26.00;;;;;;;;;;5092783;28;20476;-70
2022/12/10 14:09:49;;;;;;;42.37;24.10;;;;;;;;;;5092658;28;20453;-71
2022/12/10 14:12:18;;;;;;;45.57;24.83;;;;;;;;;;5092631;28;20447;-70
2022/12/10 14:14:48;;;;;;;41.67;25.17;;;;;;;;;;5092305;28;20454;-70
2022/12/10 14:17:17;;;;;;;39.97;22.87;;;;;;;;;;5092828;28;20587;-70
2022/12/10 14:19:44;;;;;;;46.07;22.40;;;;;;;;;;5093010;28;20438;-70
2022/12/10 14:22:16;;;;;;;42.70;22.87;;;;;;;;;;5092507;28;20457;-70
2022/12/10 14:24:44;;;;;;;52.70;27.80;;;;;;;;;;5092031;28;20451;-70
2022/12/10 14:27:13;;;;;;;53.20;31.23;;;;;;;;;;5092512;28;20493;-70
2022/12/10 14:29:45;;;;;;;58.30;33.78;;;;;;;;;;5091035;28;20453;-71
2022/12/10 14:32:14;;;;;;;52.37;27.87;;;;;;;;;;5092362;28;20223;-70
2022/12/10 14:34:41;;;;;;;54.47;31.73;;;;;;;;;;5092087;28;20460;-69
2022/12/10 14:37:12;;;;;;;52.60;29.20;;;;;;;;;;5092351;28;20478;-69
2022/12/10 14:39:41;;;;;;;50.27;27.00;;;;;;;;;;5092839;28;20439;-69
2022/12/10 14:42:08;;;;;;;45.17;24.80;;;;;;;;;;5096672;28;20469;-70